Terminal Aerodrome Forecast
Issued by NWS

Home | Current Version | Previous Version | Text Only | Print | Product List | Glossary On
Versions: 1 2 3 4 5 6 7 8 9 10 11 12 13 14 15 16 17 18
000
FTUS43 KLSX 132101 AAA
TAFUIN
TAF AMD
KUIN 132101Z 1321/1418 30021G31KT P6SM BKN035
     FM140100 32015G25KT P6SM BKN028
     FM140600 34012G19KT P6SM BKN025
     FM140900 33007KT P6SM SCT070=

USA.gov is the U.S. government's official web portal to all federal, state and local government web resources and services.